Flag for USA

Past Weather in 41°27'54"N, 81°44'01"W, USA — Yesterday and Last 2 Weeks

Currently: 31 °F. Passing clouds. (Weather station: Cleveland-Hopkins International Airport, USA). See more current weather

Past Weather in 41°27'54"N, 81°44'01"W — Graph

°F

41°27'54"N, 81°44'01"W Temperature Yesterday

Maximum temperature yesterday: 42 °F (at 9:51 am)
Minimum temperature yesterday: 29 °F (at 8:51 pm)
Average temperature yesterday: 37 °F

High & Low Weather Summary for the Past Weeks

 TemperatureHumidityPressure
High47 °F (Jan 13, 3:51 pm)100% (Jan 1, 10:51 pm)30.41 "Hg (Jan 1, 10:51 pm)
Low23 °F (Jan 9, 6:51 am)38% (Jan 9, 1:51 pm)29.56 "Hg (Jan 15, 3:12 pm)
Average33 °F83%30.07 "Hg
* Reported Jan 1 5:51 am — Jan 16 5:51 am, 41°27'54"N, 81°44'01"W. Weather by CustomWeather, © 2021

Note: Actual official high and low records may vary slightly from our data, if they occured in-between our weather recording intervals... More about our weather records

41°27'54"N, 81°44'01"W Weather History for the Previous 24 Hours

Scroll right to see more
 ConditionsComfort  
Time TempWeatherWind HumidityBarometerVisibility
5:51 am
Sat, Jan 16
31 °FPassing clouds.6 mph92%29.64 "Hg9 mi
5:25 am31 °FPassing clouds.5 mph92%29.57 "Hg10 mi
4:51 am32 °FLow clouds.8 mph88%29.65 "Hg10 mi
3:51 am30 °FPassing clouds.5 mph92%29.65 "Hg9 mi
3:22 am30 °FPassing clouds.5 mph92%29.60 "Hg10 mi
2:51 am31 °FClear.5 mph92%29.67 "Hg10 mi
1:51 am32 °FPassing clouds.8 mph88%29.68 "Hg10 mi
1:11 am31 °FPassing clouds.9 mph92%29.62 "Hg10 mi
12:51 am30 °FClear.10 mph92%29.69 "Hg10 mi
11:51 pm
Fri, Jan 15
29 °FClear.7 mph93%29.70 "Hg10 mi
10:51 pm30 °FPassing clouds.8 mph92%29.71 "Hg10 mi
9:51 pm32 °FLight snow. Partly cloudy.9 mph92%29.72 "Hg9 mi
9:33 pm33 °FLight snow. Fog.7 mph92%29.65 "Hg2 mi
8:51 pm29 °FPassing clouds.6 mph96%29.71 "Hg10 mi
7:51 pm31 °FClear.6 mph92%29.71 "Hg10 mi
6:51 pm33 °FPassing clouds.7 mph92%29.69 "Hg10 mi
5:51 pm35 °FMostly cloudy.7 mph92%29.68 "Hg10 mi
5:36 pm36 °FMostly cloudy.6 mph89%29.62 "Hg10 mi
4:51 pm36 °FMostly cloudy.9 mph89%29.66 "Hg10 mi
4:31 pm35 °FCloudy.9 mph96%29.59 "Hg10 mi
4:23 pm35 °FMore clouds than sun.7 mph96%29.59 "Hg10 mi
3:51 pm35 °FLight rain. Low clouds.8 mph92%29.63 "Hg7 mi
3:12 pm34 °FLight snow. Fog.8 mph92%29.56 "Hg4 mi
1:51 pm34 °FLight rain. Fog.10 mph92%29.59 "Hg2 mi
12:51 pm38 °FLight rain. Mostly cloudy.10 mph90%29.57 "Hg10 mi
11:51 am39 °FCloudy.12 mph82%29.58 "Hg10 mi
10:51 am42 °FLight rain. Mostly cloudy.13 mph62%29.59 "Hg10 mi
9:51 am42 °FOvercast.10 mph57%29.58 "Hg10 mi
8:51 am41 °FMostly cloudy.10 mph60%29.58 "Hg10 mi
7:51 am41 °FMore clouds than sun.12 mph58%29.58 "Hg10 mi
Weather by CustomWeather, © 2021

See weather overview